Time;durP1;ratioP1;P1;durP2;ratioP2;P2;SDS_P1;SDS_P2;PMS_P1;PMS_P2;Temp;Humidity;BMP_temperature;BMP_pressure;BME280_temperature;BME280_humidity;BME280_pressure;Samples;Min_cycle;Max_cycle;Signal;HPM_P1;HPM_P2
2022/10/06 00:00:25;;;;;;;2;1.5;;;;;;;;;;;;;
2022/10/06 00:02:51;;;;;;;2.1;1.4;;;;;;;;;;;;;
2022/10/06 00:05:19;;;;;;;2.2;1.6;;;;;;;;;;;;;
2022/10/06 00:07:44;;;;;;;2.1;1.4;;;;;;;;;;;;;
2022/10/06 00:10:17;;;;;;;1.9;1.4;;;;;;;;;;;;;
2022/10/06 00:12:42;;;;;;;2.1;1.4;;;;;;;;;;;;;
2022/10/06 00:15:07;;;;;;;1.5;1.4;;;;;;;;;;;;;
2022/10/06 00:17:33;;;;;;;1.4;1.3;;;;;;;;;;;;;
2022/10/06 00:19:58;;;;;;;1.4;1.3;;;;;;;;;;;;;
2022/10/06 00:22:24;;;;;;;1.9;1.3;;;;;;;;;;;;;
2022/10/06 00:24:49;;;;;;;1.8;1;;;;;;;;;;;;;
2022/10/06 00:27:14;;;;;;;2.6;1.2;;;;;;;;;;;;;
2022/10/06 00:29:41;;;;;;;2.5;1.3;;;;;;;;;;;;;
2022/10/06 00:32:06;;;;;;;1.4;1.3;;;;;;;;;;;;;
2022/10/06 00:34:31;;;;;;;3.5;1.5;;;;;;;;;;;;;
2022/10/06 00:36:56;;;;;;;2.2;1.6;;;;;;;;;;;;;
2022/10/06 00:39:22;;;;;;;2;1.3;;;;;;;;;;;;;
2022/10/06 00:41:47;;;;;;;1.8;1.3;;;;;;;;;;;;;
2022/10/06 00:44:12;;;;;;;1.9;1.3;;;;;;;;;;;;;
2022/10/06 00:46:37;;;;;;;2.9;1.5;;;;;;;;;;;;;
2022/10/06 00:49:02;;;;;;;3.2;1.8;;;;;;;;;;;;;
2022/10/06 00:51:28;;;;;;;1.6;1.5;;;;;;;;;;;;;
2022/10/06 00:53:53;;;;;;;1.7;1.5;;;;;;;;;;;;;
2022/10/06 00:56:19;;;;;;;2.3;1.6;;;;;;;;;;;;;
2022/10/06 00:58:44;;;;;;;1.6;1.5;;;;;;;;;;;;;
2022/10/06 01:01:10;;;;;;;1.5;1.4;;;;;;;;;;;;;
2022/10/06 01:03:35;;;;;;;2.3;1.4;;;;;;;;;;;;;
2022/10/06 01:06:01;;;;;;;4.3;1.3;;;;;;;;;;;;;
2022/10/06 01:08:27;;;;;;;2.6;1.6;;;;;;;;;;;;;
2022/10/06 01:10:52;;;;;;;1.4;1.3;;;;;;;;;;;;;
2022/10/06 01:13:18;;;;;;;2.2;1.3;;;;;;;;;;;;;
2022/10/06 01:15:43;;;;;;;3.2;1.6;;;;;;;;;;;;;
2022/10/06 01:18:08;;;;;;;2.8;1.3;;;;;;;;;;;;;
2022/10/06 01:20:33;;;;;;;5;1.4;;;;;;;;;;;;;
2022/10/06 01:22:58;;;;;;;2.8;1.4;;;;;;;;;;;;;
2022/10/06 01:25:23;;;;;;;2.7;1.5;;;;;;;;;;;;;
2022/10/06 01:27:52;;;;;;;2.4;1.2;;;;;;;;;;;;;
2022/10/06 01:30:14;;;;;;;3.3;1.6;;;;;;;;;;;;;
2022/10/06 01:32:39;;;;;;;1.2;1.1;;;;;;;;;;;;;
2022/10/06 01:35:04;;;;;;;3.7;1.3;;;;;;;;;;;;;
2022/10/06 01:37:31;;;;;;;2.8;1.1;;;;;;;;;;;;;
2022/10/06 01:39:56;;;;;;;2.2;1.2;;;;;;;;;;;;;
2022/10/06 01:42:23;;;;;;;2.2;1.1;;;;;;;;;;;;;
2022/10/06 01:44:48;;;;;;;1.5;1.1;;;;;;;;;;;;;
2022/10/06 01:47:13;;;;;;;1.5;1.2;;;;;;;;;;;;;
2022/10/06 01:52:03;;;;;;;1.9;1.3;;;;;;;;;;;;;
2022/10/06 01:54:29;;;;;;;2.4;1.3;;;;;;;;;;;;;
2022/10/06 01:56:54;;;;;;;2.8;1.4;;;;;;;;;;;;;
2022/10/06 01:59:23;;;;;;;2.1;1.1;;;;;;;;;;;;;
2022/10/06 02:01:47;;;;;;;1.7;1.3;;;;;;;;;;;;;
2022/10/06 02:04:14;;;;;;;2.1;1.2;;;;;;;;;;;;;
2022/10/06 02:06:39;;;;;;;3.8;1.3;;;;;;;;;;;;;
2022/10/06 02:09:04;;;;;;;1.7;1.3;;;;;;;;;;;;;
2022/10/06 02:11:29;;;;;;;2.7;1.4;;;;;;;;;;;;;
2022/10/06 02:13:54;;;;;;;1.7;1.5;;;;;;;;;;;;;
2022/10/06 02:16:19;;;;;;;3.3;1.5;;;;;;;;;;;;;
2022/10/06 02:18:44;;;;;;;2.4;1.4;;;;;;;;;;;;;
2022/10/06 02:21:11;;;;;;;1.5;1.4;;;;;;;;;;;;;
2022/10/06 02:23:36;;;;;;;1.5;1.4;;;;;;;;;;;;;
2022/10/06 02:26:02;;;;;;;2.2;1.8;;;;;;;;;;;;;
2022/10/06 02:28:27;;;;;;;2.1;1.4;;;;;;;;;;;;;
2022/10/06 02:30:54;;;;;;;6.1;2;;;;;;;;;;;;;
2022/10/06 02:33:18;;;;;;;2.1;1.6;;;;;;;;;;;;;
2022/10/06 02:35:44;;;;;;;4.4;1.5;;;;;;;;;;;;;
2022/10/06 02:38:09;;;;;;;2.3;1.2;;;;;;;;;;;;;
2022/10/06 02:40:36;;;;;;;2.6;1.5;;;;;;;;;;;;;
2022/10/06 02:43:01;;;;;;;3.4;1.2;;;;;;;;;;;;;
2022/10/06 02:45:29;;;;;;;3.5;1.5;;;;;;;;;;;;;
2022/10/06 02:47:53;;;;;;;2.1;1.2;;;;;;;;;;;;;
2022/10/06 02:50:19;;;;;;;10.3;2.5;;;;;;;;;;;;;
2022/10/06 02:52:44;;;;;;;7.5;2.9;;;;;;;;;;;;;
2022/10/06 02:55:14;;;;;;;2.7;1.5;;;;;;;;;;;;;
2022/10/06 02:57:42;;;;;;;2.3;1.6;;;;;;;;;;;;;
2022/10/06 03:00:07;;;;;;;1.3;1.2;;;;;;;;;;;;;
2022/10/06 03:02:32;;;;;;;1.6;1.2;;;;;;;;;;;;;
2022/10/06 03:04:57;;;;;;;4;1.6;;;;;;;;;;;;;
2022/10/06 03:07:24;;;;;;;7.9;1.9;;;;;;;;;;;;;
2022/10/06 03:09:49;;;;;;;3.3;1.5;;;;;;;;;;;;;
2022/10/06 03:12:15;;;;;;;2.2;1.3;;;;;;;;;;;;;
2022/10/06 03:14:40;;;;;;;2.8;1.6;;;;;;;;;;;;;
2022/10/06 03:17:08;;;;;;;4.5;2.1;;;;;;;;;;;;;
2022/10/06 03:19:31;;;;;;;8.6;3.3;;;;;;;;;;;;;
2022/10/06 03:21:58;;;;;;;11.7;4.7;;;;;;;;;;;;;
2022/10/06 03:24:24;;;;;;;7.3;3.3;;;;;;;;;;;;;
2022/10/06 03:26:50;;;;;;;5;2.4;;;;;;;;;;;;;
2022/10/06 03:29:15;;;;;;;4.3;1.9;;;;;;;;;;;;;
2022/10/06 03:31:42;;;;;;;4.7;1.9;;;;;;;;;;;;;
2022/10/06 03:34:25;;;;;;;4;2.2;;;;;;;;;;;;;
2022/10/06 03:36:33;;;;;;;3.2;1.5;;;;;;;;;;;;;
2022/10/06 03:38:57;;;;;;;8.3;2.5;;;;;;;;;;;;;
2022/10/06 03:41:23;;;;;;;4;1.8;;;;;;;;;;;;;
2022/10/06 03:43:47;;;;;;;3.2;1.6;;;;;;;;;;;;;
2022/10/06 03:46:14;;;;;;;3.6;1.7;;;;;;;;;;;;;
2022/10/06 03:48:39;;;;;;;1.7;1.2;;;;;;;;;;;;;
2022/10/06 03:51:04;;;;;;;2.7;1.4;;;;;;;;;;;;;
2022/10/06 03:53:29;;;;;;;2.3;1.4;;;;;;;;;;;;;
2022/10/06 03:55:54;;;;;;;1.8;1.4;;;;;;;;;;;;;
2022/10/06 03:58:19;;;;;;;2.5;1.5;;;;;;;;;;;;;
2022/10/06 04:02:35;;;;;;;5.7;1.8;;;;;;;9.07;90.93066;948.9495;;;;
2022/10/06 04:05:10;;;;;;;5.5;1.8;;;;;;;9.03;90.7627;949.0061;;;;
2022/10/06 04:07:35;;;;;;;5.6;2.2;;;;;;;8.81;91.79297;948.9997;;;;
2022/10/06 04:10:07;;;;;;;4.8;1.9;;;;;;;8.89;91.75391;949.0352;;;;
2022/10/06 04:12:33;;;;;;;3.8;2.5;;;;;;;8.9;91.24512;949.1239;;;;
2022/10/06 04:14:57;;;;;;;5.5;3;;;;;;;8.77;91.79883;949.1177;;;;
2022/10/06 04:17:27;;;;;;;5.3;3.3;;;;;;;8.74;92.03125;949.0984;;;;
2022/10/06 04:19:56;;;;;;;5.8;3.5;;;;;;;8.84;91.5293;949.1044;;;;
2022/10/06 04:22:21;;;;;;;5.1;3.5;;;;;;;8.91;90.96289;949.113;;;;
2022/10/06 04:24:52;;;;;;;4.7;3.2;;;;;;;8.99;90.10645;949.0252;;;;
2022/10/06 04:27:29;;;;;;;5.4;3.4;;;;;;;9.04;89.84082;949.1699;;;;
2022/10/06 04:29:44;;;;;;;7.5;2.3;;;;;;;8.79;90.62012;949.2032;;;;
2022/10/06 04:32:13;;;;;;;6;2.5;;;;;;;8.56;92.02539;949.2117;;;;
2022/10/06 04:34:44;;;;;;;4.6;2;;;;;;;8.5;92.69531;949.2551;;;;
2022/10/06 04:37:16;;;;;;;3.6;2.1;;;;;;;8.73;91.40234;949.298;;;;
2022/10/06 04:39:45;;;;;;;3.5;2;;;;;;;8.81;90.56836;949.3441;;;;
2022/10/06 04:42:12;;;;;;;5.5;2.2;;;;;;;8.67;91.0498;949.3436;;;;
2022/10/06 04:44:37;;;;;;;3.2;2.2;;;;;;;8.53;92.07617;949.4109;;;;
2022/10/06 04:47:08;;;;;;;2.1;1.6;;;;;;;8.58;92.22461;949.4349;;;;
2022/10/06 04:49:33;;;;;;;3.6;1.6;;;;;;;8.68;91.95898;949.4233;;;;
2022/10/06 04:51:59;;;;;;;3;1.9;;;;;;;8.75;91.69043;949.4839;;;;
2022/10/06 04:54:24;;;;;;;3.9;1.8;;;;;;;8.84;91.08594;949.4745;;;;
2022/10/06 04:56:53;;;;;;;5.2;2.4;;;;;;;8.67;92.36914;949.3753;;;;
2022/10/06 05:00:21;;;;;;;4.6;2.7;;;;;;;8.72;92.2207;949.44;;;;
2022/10/06 05:05:30;;;;;;;3.2;2;;;;;;;8.55;92.76172;949.4958;;;;
2022/10/06 05:08:01;;;;;;;3.3;1.8;;;;;;;8.57;92.30176;949.4725;;;;
2022/10/06 05:10:29;;;;;;;4.4;1.8;;;;;;;8.47;92.25781;949.5478;;;;
2022/10/06 05:12:55;;;;;;;2.1;1.6;;;;;;;8.44;93.19531;949.5372;;;;
2022/10/06 05:15:29;;;;;;;3;2;;;;;;;8.52;92.64258;949.5644;;;;
2022/10/06 05:17:55;;;;;;;5.3;2.3;;;;;;;8.58;92.58789;949.5229;;;;
2022/10/06 05:20:21;;;;;;;3.5;2.8;;;;;;;8.61;91.74121;949.6481;;;;
2022/10/06 05:22:45;;;;;;;4.1;3.3;;;;;;;8.31;93.36816;949.5475;;;;
2022/10/06 05:25:15;;;;;;;5.4;3.2;;;;;;;8.3;93.64063;949.5705;;;;
2022/10/06 05:27:44;;;;;;;6.5;3.4;;;;;;;8.5;93.13672;949.6716;;;;
2022/10/06 05:30:18;;;;;;;5.5;3.4;;;;;;;8.59;92.00879;949.6375;;;;
2022/10/06 05:32:49;;;;;;;6.3;3.2;;;;;;;8.57;92.09766;949.6766;;;;
2022/10/06 05:35:13;;;;;;;4.4;3;;;;;;;8.46;92.51563;949.7369;;;;
2022/10/06 05:37:42;;;;;;;5;3.2;;;;;;;8.52;92.4043;949.7668;;;;
2022/10/06 05:40:13;;;;;;;6.6;3.6;;;;;;;8.72;91.02734;949.8093;;;;
2022/10/06 05:46:11;;;;;;;7.9;5.1;;;;;;;8.84;89.46973;949.8493;;;;
2022/10/06 05:48:39;;;;;;;9.6;5.4;;;;;;;8.9;89.0498;949.8561;;;;
2022/10/06 05:51:04;;;;;;;10.8;7;;;;;;;8.88;88.8877;949.8658;;;;
2022/10/06 05:53:32;;;;;;;6.9;4.2;;;;;;;8.79;89.58301;949.8917;;;;
2022/10/06 05:55:57;;;;;;;8.5;4.5;;;;;;;8.78;90.24121;949.9097;;;;
2022/10/06 05:58:27;;;;;;;5.3;2.7;;;;;;;8.77;91.12793;949.9651;;;;
2022/10/06 06:00:58;;;;;;;3.8;2.6;;;;;;;9.35;89.66699;949.9704;;;;
2022/10/06 06:03:29;;;;;;;2.8;2;;;;;;;9.82;86.62988;949.8535;;;;
2022/10/06 06:06:02;;;;;;;3.4;1.7;;;;;;;10.32;84.12793;949.9122;;;;
2022/10/06 06:08:31;;;;;;;3.6;1.6;;;;;;;10.74;81.43457;949.9796;;;;
2022/10/06 06:10:56;;;;;;;2.3;1.7;;;;;;;10.97;80.31152;949.9238;;;;
2022/10/06 06:13:23;;;;;;;2.8;1.9;;;;;;;10.84;80.28809;949.8876;;;;
2022/10/06 06:16:03;;;;;;;4.1;1.8;;;;;;;10.67;81.14746;949.96;;;;
2022/10/06 06:18:14;;;;;;;6;1.9;;;;;;;10.66;81.39648;950.0275;;;;
2022/10/06 06:20:40;;;;;;;6.5;2.5;;;;;;;10.7;81.81641;950.0461;;;;
2022/10/06 06:23:05;;;;;;;11;4.1;;;;;;;10.74;82.0293;950.0583;;;;
2022/10/06 06:25:33;;;;;;;14.7;6.7;;;;;;;10.9;81.44043;950.087;;;;
2022/10/06 06:27:58;;;;;;;14.8;7.1;;;;;;;11.13;80.76465;950.0185;;;;
2022/10/06 06:30:26;;;;;;;7.2;4.6;;;;;;;11.46;79.86621;950.1287;;;;
2022/10/06 06:32:51;;;;;;;6.5;3.8;;;;;;;11.66;78.69922;950.1283;;;;
2022/10/06 06:35:16;;;;;;;5.6;3.4;;;;;;;11.65;78.22949;950.0859;;;;
2022/10/06 06:37:41;;;;;;;5.3;2.9;;;;;;;11.81;77.87988;950.0101;;;;
2022/10/06 06:40:11;;;;;;;3.6;2.3;;;;;;;11.85;77.83008;950.0984;;;;
2022/10/06 06:42:36;;;;;;;5;2.3;;;;;;;11.96;77.65527;950.1409;;;;
2022/10/06 06:45:08;;;;;;;4.4;2.2;;;;;;;12.2;77.28418;950.1186;;;;
2022/10/06 06:47:36;;;;;;;2.7;1.9;;;;;;;12.31;75.88379;950.1525;;;;
2022/10/06 06:50:04;;;;;;;1.5;1.3;;;;;;;12.31;75.41406;950.1238;;;;
2022/10/06 06:52:27;;;;;;;3.5;1.4;;;;;;;12.5;75.2627;950.1281;;;;
2022/10/06 06:54:55;;;;;;;2.3;1.5;;;;;;;12.76;74;950.1465;;;;
2022/10/06 06:57:20;;;;;;;4.6;2.2;;;;;;;12.83;73.52832;950.2001;;;;
2022/10/06 07:00:28;;;;;;;4.5;2.1;;;;;;;13;73.29492;950.1804;;;;
2022/10/06 07:03:44;;;;;;;3.5;2.1;;;;;;;13.19;72.34766;950.1525;;;;
2022/10/06 07:06:09;;;;;;;2.9;1.6;;;;;;;13.32;70.58887;950.1591;;;;
2022/10/06 07:08:34;;;;;;;2.5;1.3;;;;;;;13.36;70.84961;950.1431;;;;
2022/10/06 07:11:00;;;;;;;1.9;1.4;;;;;;;13.54;70.07422;950.1273;;;;
2022/10/06 07:13:25;;;;;;;3.3;2.1;;;;;;;13.81;69.03613;950.1649;;;;
2022/10/06 07:25:40;;;;;;;3.5;2;;;;;;;14.71;66.49316;950.0594;;;;
2022/10/06 07:28:06;;;;;;;3.2;1.6;;;;;;;14.89;66.27734;950.1244;;;;
2022/10/06 07:30:36;;;;;;;2.7;1.3;;;;;;;15.04;65.6084;950.144;;;;
2022/10/06 07:33:08;;;;;;;2.9;1.6;;;;;;;15.74;63.95703;950.1924;;;;
2022/10/06 07:35:40;;;;;;;4;1.4;;;;;;;16.09;64.13477;950.1733;;;;
2022/10/06 07:38:11;;;;;;;2.1;1.3;;;;;;;16.28;61.65234;950.171;;;;
2022/10/06 07:40:36;;;;;;;2.4;1.5;;;;;;;16.69;60.4834;950.1564;;;;
2022/10/06 07:43:08;;;;;;;2;1.1;;;;;;;17.17;58.68262;950.3168;;;;
2022/10/06 07:45:40;;;;;;;2;1.1;;;;;;;16.98;57.52148;950.3287;;;;
2022/10/06 07:48:08;;;;;;;2.1;1.3;;;;;;;16.99;57.44141;950.3649;;;;
2022/10/06 07:50:37;;;;;;;2.6;1.6;;;;;;;17.42;56.80273;950.372;;;;
2022/10/06 07:53:06;;;;;;;3.6;2;;;;;;;17.79;56.10742;950.3918;;;;
2022/10/06 07:55:28;;;;;;;1.5;1.2;;;;;;;17.73;55.85547;950.4103;;;;
2022/10/06 07:58:25;;;;;;;2.8;1.3;;;;;;;18.05;54.45508;950.3547;;;;
2022/10/06 08:00:55;;;;;;;1.5;1.1;;;;;;;18.88;53.61621;950.3961;;;;
2022/10/06 08:09:07;;;;;;;2.4;1.2;;;;;;;18.24;53.12012;950.3775;;;;
2022/10/06 08:11:35;;;;;;;3.3;1.1;;;;;;;18.94;52.0752;950.3329;;;;
2022/10/06 08:14:00;;;;;;;2.3;1.2;;;;;;;19.11;48.91504;950.3672;;;;
2022/10/06 08:17:13;;;;;;;2.1;1;;;;;;;19.33;48.33398;950.3278;;;;
2022/10/06 08:20:10;;;;;;;1.3;1.1;;;;;;;20.39;48.06641;950.2978;;;;
2022/10/06 08:22:21;;;;;;;1.2;1.1;;;;;;;21.12;45.70117;950.3183;;;;
2022/10/06 08:24:45;;;;;;;1.1;0.8;;;;;;;20.4;45.60254;950.3123;;;;
2022/10/06 08:27:15;;;;;;;2.2;1.1;;;;;;;21.45;43.24023;950.3678;;;;
2022/10/06 08:29:40;;;;;;;1.4;0.9;;;;;;;22.55;42.18652;950.3428;;;;
2022/10/06 08:32:06;;;;;;;2.9;1.1;;;;;;;23.8;40.03418;950.3324;;;;
2022/10/06 08:34:31;;;;;;;0.7;0.7;;;;;;;25;38.41895;950.3578;;;;
2022/10/06 08:37:02;;;;;;;1.6;0.9;;;;;;;25.06;37.92871;950.2913;;;;
2022/10/06 08:39:23;;;;;;;1.6;0.8;;;;;;;25.91;36.07324;950.374;;;;
2022/10/06 08:41:53;;;;;;;2.6;1.1;;;;;;;27.12;34.47559;950.3025;;;;
2022/10/06 08:44:17;;;;;;;1.6;1.2;;;;;;;26.98;34.34668;950.3175;;;;
2022/10/06 08:46:41;;;;;;;1.2;0.9;;;;;;;26.98;33.76563;950.3364;;;;
2022/10/06 08:49:06;;;;;;;4.2;1.3;;;;;;;25.82;36.26758;950.3641;;;;
2022/10/06 08:51:31;;;;;;;1.3;1.1;;;;;;;25.65;35.66211;950.361;;;;
2022/10/06 08:53:57;;;;;;;2.1;1;;;;;;;24.99;36.63672;950.296;;;;
2022/10/06 08:57:04;;;;;;;2.7;0.9;;;;;;;25.16;36.83984;950.3299;;;;
2022/10/06 08:59:30;;;;;;;1;0.8;;;;;;;25.3;36.20215;950.2692;;;;
2022/10/06 09:01:54;;;;;;;1.1;0.7;;;;;;;25.47;36.3457;950.307;;;;
2022/10/06 09:04:21;;;;;;;3.4;1.3;;;;;;;24.99;36.74316;950.2031;;;;
2022/10/06 09:06:48;;;;;;;2.4;0.9;;;;;;;24.65;36.92676;950.272;;;;
2022/10/06 09:09:16;;;;;;;1.2;0.9;;;;;;;24.69;36.35254;950.2114;;;;
2022/10/06 09:11:44;;;;;;;3.4;0.9;;;;;;;24.25;39.73242;950.1811;;;;
2022/10/06 09:14:09;;;;;;;2.7;0.9;;;;;;;24.1;37.94141;950.1894;;;;
2022/10/06 09:16:34;;;;;;;2.7;0.9;;;;;;;24.38;37.06934;950.2034;;;;
2022/10/06 09:18:59;;;;;;;1.9;0.9;;;;;;;24.12;38.04883;950.2189;;;;
2022/10/06 09:21:24;;;;;;;1.2;1;;;;;;;23.82;38.97656;950.1741;;;;
2022/10/06 09:23:49;;;;;;;1.2;1;;;;;;;23.45;38.01465;950.0891;;;;
2022/10/06 09:26:14;;;;;;;1.2;0.9;;;;;;;23.27;39.85645;950.1445;;;;
2022/10/06 09:28:39;;;;;;;1;0.7;;;;;;;23.52;39.13965;950.0947;;;;
2022/10/06 09:31:09;;;;;;;0.9;0.9;;;;;;;23.08;38.40625;950.0897;;;;
2022/10/06 09:33:34;;;;;;;1.8;0.8;;;;;;;22.89;40.51563;950.1044;;;;
2022/10/06 09:36:05;;;;;;;1.1;0.8;;;;;;;22.84;37.78711;950.0388;;;;
2022/10/06 09:38:26;;;;;;;2.1;0.8;;;;;;;22.89;38.54297;949.9922;;;;
2022/10/06 09:40:52;;;;;;;3.3;1;;;;;;;22.64;42.41797;949.9875;;;;
2022/10/06 09:43:17;;;;;;;1.9;1;;;;;;;21.63;44.00781;949.9934;;;;
2022/10/06 09:45:42;;;;;;;1.2;1;;;;;;;21.1;45.94434;950.0098;;;;
2022/10/06 09:48:10;;;;;;;2.1;0.9;;;;;;;20.94;48.00781;949.9954;;;;
2022/10/06 09:50:35;;;;;;;1;0.8;;;;;;;20.91;48.78809;950.0176;;;;
2022/10/06 09:53:02;;;;;;;1.7;1;;;;;;;21.25;47.27051;949.9875;;;;
2022/10/06 09:55:27;;;;;;;2.1;1;;;;;;;21.24;47.02246;950.0095;;;;
2022/10/06 09:57:51;;;;;;;1.4;1.1;;;;;;;21.25;48.7207;949.9738;;;;
2022/10/06 10:00:20;;;;;;;2.1;1.1;;;;;;;21.9;45.26465;949.9581;;;;
2022/10/06 10:02:45;;;;;;;1.3;1;;;;;;;21.85;45.64746;949.8898;;;;
2022/10/06 10:05:10;;;;;;;1.4;0.9;;;;;;;21.78;45.25293;949.9451;;;;
2022/10/06 10:07:36;;;;;;;1.3;1.1;;;;;;;21.82;45.25684;949.9177;;;;
2022/10/06 10:10:02;;;;;;;1.5;1.4;;;;;;;22.11;46.05957;949.8628;;;;
2022/10/06 10:12:31;;;;;;;1.4;1;;;;;;;22.48;45.10156;949.7222;;;;
2022/10/06 10:14:57;;;;;;;3.3;1.2;;;;;;;22.98;44.21289;949.7589;;;;
2022/10/06 10:17:25;;;;;;;1.2;1.1;;;;;;;22.68;47.12891;949.731;;;;
2022/10/06 10:19:52;;;;;;;2.3;1.4;;;;;;;22.78;44.9209;949.6964;;;;
2022/10/06 10:22:15;;;;;;;2.8;1.6;;;;;;;23.17;44.83008;949.7512;;;;
2022/10/06 10:24:41;;;;;;;2.6;1.3;;;;;;;23.48;44.80371;949.6531;;;;
2022/10/06 10:27:06;;;;;;;1.4;1.2;;;;;;;23.54;43.88086;949.6714;;;;
2022/10/06 10:29:31;;;;;;;1.4;1.1;;;;;;;22.45;47.18652;949.5961;;;;
2022/10/06 10:31:56;;;;;;;3.1;1.5;;;;;;;22.63;47.46484;949.5467;;;;
2022/10/06 10:34:21;;;;;;;2.1;1.2;;;;;;;23.04;47.13184;949.5517;;;;
2022/10/06 10:36:47;;;;;;;1.5;1.4;;;;;;;22.84;48.78906;949.5986;;;;
2022/10/06 10:39:11;;;;;;;1.4;1.3;;;;;;;23.05;49.24707;949.5709;;;;
2022/10/06 10:41:39;;;;;;;3;1.3;;;;;;;22.57;50.82617;949.5825;;;;
2022/10/06 10:44:11;;;;;;;1.2;1.1;;;;;;;22.79;48.81934;949.46;;;;
2022/10/06 10:46:38;;;;;;;2.2;1.4;;;;;;;22.93;48.21289;949.5154;;;;
2022/10/06 10:49:03;;;;;;;2.1;1.2;;;;;;;22.74;48.9541;949.5422;;;;
2022/10/06 10:51:29;;;;;;;1.8;1.5;;;;;;;23.06;47.65039;949.5033;;;;
2022/10/06 10:53:54;;;;;;;1.7;1.2;;;;;;;23.37;45.81543;949.5075;;;;
2022/10/06 10:56:21;;;;;;;1.5;1.1;;;;;;;23.06;47.82813;949.4651;;;;
2022/10/06 10:58:46;;;;;;;2.1;1.2;;;;;;;22.99;47.54883;949.4711;;;;
2022/10/06 11:01:17;;;;;;;2.5;1.3;;;;;;;23.64;45.92578;949.4274;;;;
2022/10/06 11:03:55;;;;;;;7.2;1.6;;;;;;;24.35;43.80762;949.4305;;;;
2022/10/06 11:06:13;;;;;;;2.4;1.1;;;;;;;24.75;43.51563;949.4221;;;;
2022/10/06 11:08:37;;;;;;;2.3;1.4;;;;;;;24.84;42.74609;949.4434;;;;
2022/10/06 11:11:02;;;;;;;2.1;1.2;;;;;;;24.47;46.52832;949.4684;;;;
2022/10/06 11:13:29;;;;;;;1.9;1.2;;;;;;;24.73;43.04199;949.3998;;;;
2022/10/06 11:15:56;;;;;;;3.7;1.3;;;;;;;24.69;43.94629;949.3855;;;;
2022/10/06 11:18:23;;;;;;;2.2;1.4;;;;;;;24.91;45.32324;949.3812;;;;
2022/10/06 11:20:47;;;;;;;2.2;1.3;;;;;;;25.09;43.53711;949.2756;;;;
2022/10/06 11:23:13;;;;;;;2;1.2;;;;;;;25.45;42.46191;949.2693;;;;
2022/10/06 11:25:40;;;;;;;2;1.3;;;;;;;25.62;42.18262;949.2933;;;;
2022/10/06 11:28:05;;;;;;;2.1;1.2;;;;;;;26.65;40.63477;949.2506;;;;
2022/10/06 11:30:34;;;;;;;2.7;1.3;;;;;;;26.3;40.34082;949.2784;;;;
2022/10/06 11:33:00;;;;;;;3.3;1.5;;;;;;;26.81;38.9541;949.1884;;;;
2022/10/06 11:35:25;;;;;;;2.1;1.4;;;;;;;26.03;41.89063;949.2184;;;;
2022/10/06 11:37:51;;;;;;;1.3;1.2;;;;;;;26.55;40.57715;949.2189;;;;
2022/10/06 11:40:19;;;;;;;2;1.3;;;;;;;26.05;41.96289;949.2137;;;;
2022/10/06 11:42:44;;;;;;;1.5;1.3;;;;;;;26.9;39.53027;949.207;;;;
2022/10/06 11:45:12;;;;;;;1.6;1.4;;;;;;;27.18;39.95801;949.176;;;;
2022/10/06 11:47:36;;;;;;;1.3;1.1;;;;;;;27.85;37.75;949.1633;;;;
2022/10/06 11:50:02;;;;;;;2;1.3;;;;;;;27.23;39.44043;949.1855;;;;
2022/10/06 11:52:29;;;;;;;1.4;1.2;;;;;;;26.68;39.87793;949.1353;;;;
2022/10/06 11:54:54;;;;;;;3.4;1.4;;;;;;;26.2;41.59863;949.1526;;;;
2022/10/06 11:57:19;;;;;;;3.5;1.3;;;;;;;26.64;40.79785;949.0927;;;;
2022/10/06 11:59:44;;;;;;;2.7;1.5;;;;;;;26.3;40.88574;949.075;;;;
2022/10/06 12:02:09;;;;;;;1.9;1.1;;;;;;;26.09;43.16113;949.0934;;;;
2022/10/06 12:04:35;;;;;;;3.5;1.6;;;;;;;25.62;44.03809;949.131;;;;
2022/10/06 12:07:00;;;;;;;2.2;1.4;;;;;;;25.83;43.47949;949.1937;;;;
2022/10/06 12:09:30;;;;;;;2.7;1.4;;;;;;;25.26;44.30957;949.0652;;;;
2022/10/06 12:11:54;;;;;;;2.9;1.4;;;;;;;25.53;44.48926;948.9667;;;;
2022/10/06 12:14:19;;;;;;;5.3;1.7;;;;;;;26.25;42.34766;949.0497;;;;
2022/10/06 12:16:45;;;;;;;2.2;1.4;;;;;;;25.81;43.6543;949.0416;;;;
2022/10/06 12:19:14;;;;;;;1.7;1.5;;;;;;;26.47;42.13379;949.0237;;;;
2022/10/06 12:21:34;;;;;;;2.8;1.6;;;;;;;27.18;40.13672;948.9982;;;;
2022/10/06 12:24:00;;;;;;;4;1.6;;;;;;;27.46;41.19336;948.9716;;;;
2022/10/06 12:26:24;;;;;;;1.8;1.3;;;;;;;28.52;37.78223;948.9618;;;;
2022/10/06 12:28:51;;;;;;;2.8;1.4;;;;;;;29.18;36.53906;948.9219;;;;
2022/10/06 12:31:17;;;;;;;2;1.4;;;;;;;29.84;35.1377;948.8166;;;;
2022/10/06 12:33:42;;;;;;;4.1;1.4;;;;;;;30.37;34.37793;948.7952;;;;
2022/10/06 12:36:15;;;;;;;3;1.6;;;;;;;31.16;33.05176;948.7908;;;;
2022/10/06 12:38:44;;;;;;;3;1.4;;;;;;;33.26;29.19043;948.8489;;;;
2022/10/06 12:41:09;;;;;;;4.7;1.6;;;;;;;33.53;28.64258;948.7608;;;;
2022/10/06 12:43:34;;;;;;;4.2;1.4;;;;;;;31.34;32.07129;948.7859;;;;
2022/10/06 12:46:06;;;;;;;2.7;1.7;;;;;;;30.18;33.96973;948.7437;;;;
2022/10/06 12:48:31;;;;;;;1.5;1.4;;;;;;;31.05;32.16992;948.6997;;;;
2022/10/06 12:51:01;;;;;;;2.1;1.4;;;;;;;32.25;30.66016;948.6817;;;;
2022/10/06 12:53:31;;;;;;;2.4;1.6;;;;;;;33.21;29.23535;948.7088;;;;
2022/10/06 12:55:55;;;;;;;5.5;1.7;;;;;;;33;29.81055;948.7034;;;;
2022/10/06 12:58:20;;;;;;;2.6;1.4;;;;;;;34.35;27.79004;948.72;;;;
2022/10/06 13:00:46;;;;;;;4.8;1.7;;;;;;;32.93;30.02246;948.6276;;;;
2022/10/06 13:03:11;;;;;;;2.2;1.2;;;;;;;32.86;29.95801;948.6395;;;;
2022/10/06 13:05:36;;;;;;;1.7;1.5;;;;;;;32.84;30.56836;948.6415;;;;
2022/10/06 13:08:08;;;;;;;2.4;1.5;;;;;;;33.2;29.57129;948.6355;;;;
2022/10/06 13:10:33;;;;;;;2.2;1.4;;;;;;;31.84;31.65137;948.6699;;;;
2022/10/06 13:13:01;;;;;;;2.5;1.4;;;;;;;31.94;31.92188;948.6033;;;;
2022/10/06 13:15:27;;;;;;;2.9;1.3;;;;;;;31.59;33.09375;948.6267;;;;
2022/10/06 13:17:51;;;;;;;2.2;1.6;;;;;;;31.46;31.68457;948.5844;;;;
2022/10/06 13:20:21;;;;;;;1.9;1.5;;;;;;;31.46;32.24707;948.6114;;;;
2022/10/06 13:22:47;;;;;;;2.7;1.4;;;;;;;31.25;32.66309;948.6408;;;;
2022/10/06 13:25:17;;;;;;;1.7;1.5;;;;;;;33.35;29.10059;948.6717;;;;
2022/10/06 13:28:06;;;;;;;2.2;1.7;;;;;;;34.21;28.15527;948.6538;;;;
2022/10/06 13:30:21;;;;;;;2.8;1.6;;;;;;;34.92;28.15039;948.7079;;;;
2022/10/06 13:32:52;;;;;;;3.5;1.3;;;;;;;31.65;32.46387;948.6414;;;;
2022/10/06 13:35:21;;;;;;;2.4;1.6;;;;;;;33.04;30.06543;948.6631;;;;
2022/10/06 13:37:46;;;;;;;3.9;1.5;;;;;;;32.59;31.23535;948.628;;;;
2022/10/06 13:40:15;;;;;;;2.3;1.5;;;;;;;31.16;32.1543;948.6057;;;;
2022/10/06 13:42:41;;;;;;;2.3;1.4;;;;;;;30.74;32.9375;948.5792;;;;
2022/10/06 13:45:15;;;;;;;2.8;1.7;;;;;;;31.4;32.03906;948.6297;;;;
2022/10/06 13:47:39;;;;;;;2;1.6;;;;;;;32.27;30.94922;948.6037;;;;
2022/10/06 13:50:05;;;;;;;2.9;1.5;;;;;;;31.5;32.59766;948.6586;;;;
2022/10/06 13:52:30;;;;;;;1.5;1.4;;;;;;;31.2;32.83887;948.5939;;;;
2022/10/06 13:54:55;;;;;;;2.9;1.6;;;;;;;31.83;31.18262;948.5558;;;;
2022/10/06 13:57:23;;;;;;;1.8;1.3;;;;;;;29.72;34.56738;948.525;;;;
2022/10/06 13:59:50;;;;;;;2.9;1.8;;;;;;;28.76;36.90918;948.6344;;;;
2022/10/06 14:02:20;;;;;;;2.2;1.3;;;;;;;30.04;34.69922;948.6063;;;;
2022/10/06 14:04:45;;;;;;;2;1.8;;;;;;;30.03;34.80664;948.5869;;;;
2022/10/06 14:07:11;;;;;;;3;1.6;;;;;;;30.03;34.66211;948.6489;;;;
2022/10/06 14:09:36;;;;;;;3.8;1.6;;;;;;;29.77;35.2627;948.6144;;;;
2022/10/06 14:12:03;;;;;;;2.7;1.3;;;;;;;30.15;34.33789;948.59;;;;
2022/10/06 14:14:32;;;;;;;3.4;1.8;;;;;;;30.47;34.50586;948.6923;;;;
2022/10/06 14:17:39;;;;;;;6.4;2.1;;;;;;;29.55;35.90137;948.6205;;;;
2022/10/06 14:20:10;;;;;;;2;1.6;;;;;;;28.91;36.45801;948.5627;;;;
2022/10/06 14:22:39;;;;;;;4.8;1.7;;;;;;;29.52;35.60156;948.649;;;;
2022/10/06 14:25:04;;;;;;;2.2;1.5;;;;;;;30.37;33.88867;948.6161;;;;
2022/10/06 14:27:36;;;;;;;1.7;1.5;;;;;;;30.13;34.81348;948.6066;;;;
2022/10/06 14:30:03;;;;;;;1.7;1.6;;;;;;;30.41;33.76074;948.6057;;;;
2022/10/06 14:32:28;;;;;;;1.5;1.4;;;;;;;29.9;34.77148;948.6683;;;;
2022/10/06 14:34:57;;;;;;;2.2;1.6;;;;;;;29.6;35.57227;948.6371;;;;
2022/10/06 14:37:22;;;;;;;2.3;1.4;;;;;;;29.31;35.15625;948.6592;;;;
2022/10/06 14:39:48;;;;;;;2.9;1.6;;;;;;;29.15;35.81055;948.6328;;;;
2022/10/06 14:42:21;;;;;;;2.6;1.6;;;;;;;28.92;36.69629;948.623;;;;
2022/10/06 14:44:47;;;;;;;2.4;1.7;;;;;;;28.85;36.60742;948.6619;;;;
2022/10/06 14:47:12;;;;;;;2.8;1.7;;;;;;;28.75;37.11133;948.6814;;;;
2022/10/06 14:49:39;;;;;;;2.1;1.7;;;;;;;27.63;39.57031;948.5759;;;;
2022/10/06 14:52:05;;;;;;;2.5;2;;;;;;;26.93;40.48047;948.596;;;;
2022/10/06 14:54:33;;;;;;;2.6;1.6;;;;;;;26.5;41.91016;948.6138;;;;
2022/10/06 14:56:57;;;;;;;2.9;1.6;;;;;;;27.08;40.67188;948.5917;;;;
2022/10/06 14:59:25;;;;;;;2.4;1.8;;;;;;;26.53;42.11426;948.5748;;;;
2022/10/06 15:01:50;;;;;;;2.9;1.7;;;;;;;26.62;41.66113;948.5136;;;;
2022/10/06 15:04:19;;;;;;;6.7;1.8;;;;;;;26.44;41.64355;948.5006;;;;
2022/10/06 15:09:08;;;;;;;2.8;1.6;;;;;;;26.39;41.61621;948.4653;;;;
2022/10/06 15:11:33;;;;;;;2.1;1.5;;;;;;;25.9;42.3623;948.457;;;;
2022/10/06 15:13:59;;;;;;;2;1.5;;;;;;;25.18;43.66406;948.4322;;;;
2022/10/06 15:16:24;;;;;;;2;1.5;;;;;;;24.55;45.33496;948.5281;;;;
2022/10/06 15:18:51;;;;;;;3.5;1.8;;;;;;;24.12;47.00977;948.5106;;;;
2022/10/06 15:21:17;;;;;;;1.7;1.5;;;;;;;23.87;47.10254;948.5215;;;;
2022/10/06 15:23:44;;;;;;;3;1.7;;;;;;;23.65;47.6084;948.5781;;;;
2022/10/06 15:32:21;;;;;;;2.4;1.5;;;;;;;23.01;49.58398;948.5388;;;;
2022/10/06 15:34:41;;;;;;;3.2;1.7;;;;;;;22.88;50.00391;948.5197;;;;
2022/10/06 15:37:11;;;;;;;1.8;1.5;;;;;;;22.75;50.47168;948.508;;;;
2022/10/06 15:39:38;;;;;;;3;1.7;;;;;;;22.54;50.82129;948.5106;;;;
2022/10/06 15:42:03;;;;;;;2.9;1.7;;;;;;;22.42;51.2666;948.5215;;;;
2022/10/06 15:47:28;;;;;;;2.4;1.5;;;;;;;21.87;52.91309;948.5189;;;;
2022/10/06 15:49:52;;;;;;;3.1;1.7;;;;;;;21.69;53.66504;948.4788;;;;
2022/10/06 15:52:18;;;;;;;2.9;1.7;;;;;;;21.55;54.08203;948.5464;;;;
2022/10/06 15:54:45;;;;;;;4;2.1;;;;;;;21.27;54.80762;948.6528;;;;
2022/10/06 15:57:09;;;;;;;4.7;1.7;;;;;;;21.11;55.2666;948.5606;;;;
2022/10/06 15:59:34;;;;;;;2.9;2;;;;;;;20.9;55.73242;948.62;;;;
2022/10/06 16:05:49;;;;;;;2.6;1.8;;;;;;;20.65;56.91504;948.5786;;;;
2022/10/06 16:08:16;;;;;;;2.6;2.1;;;;;;;20.54;57.1709;948.5594;;;;
2022/10/06 16:10:41;;;;;;;2.9;1.6;;;;;;;20.55;57.25293;948.6005;;;;
2022/10/06 16:13:06;;;;;;;3.1;1.7;;;;;;;20.47;57.46484;948.5659;;;;
2022/10/06 16:15:32;;;;;;;3.8;1.8;;;;;;;20.38;57.60449;948.6369;;;;
2022/10/06 16:18:01;;;;;;;2.4;1.7;;;;;;;20.27;58.41895;948.6794;;;;
2022/10/06 16:20:30;;;;;;;3.9;1.9;;;;;;;20.11;59.46094;948.5758;;;;
2022/10/06 16:22:55;;;;;;;2.4;1.7;;;;;;;20.09;59.30566;948.635;;;;